Time;durP1;ratioP1;P1;durP2;ratioP2;P2;SDS_P1;SDS_P2;PMS_P1;PMS_P2;Temp;Humidity;BMP_temperature;BMP_pressure;BME280_temperature;BME280_humidity;BME280_pressure;Samples;Min_cycle;Max_cycle;Signal;HPM_P1;HPM_P2
2022/08/15 00:01:25;;;;;;;5.30;4.13;;;28.00;34.50;;;;;;5077194;28;20472;-72
2022/08/15 00:03:54;;;;;;;3.70;3.40;;;28.00;35.30;;;;;;5076427;28;20465;-71
2022/08/15 00:06:25;;;;;;;6.67;3.23;;;28.00;35.40;;;;;;5076867;28;20504;-72
2022/08/15 00:08:53;;;;;;;6.60;3.40;;;28.00;35.30;;;;;;5077114;28;20433;-72
2022/08/15 00:11:23;;;;;;;6.30;3.07;;;28.00;34.80;;;;;;5077341;28;20461;-72
2022/08/15 00:13:54;;;;;;;2.90;2.70;;;28.00;35.20;;;;;;5077255;28;20426;-71
2022/08/15 00:16:21;;;;;;;7.40;2.67;;;28.00;34.90;;;;;;5077979;28;20436;-72
2022/08/15 00:18:49;;;;;;;10.97;3.67;;;28.00;35.10;;;;;;5077360;28;20451;-72
2022/08/15 00:21:19;;;;;;;7.23;3.27;;;28.00;35.60;;;;;;5077442;28;20476;-72
2022/08/15 00:23:46;;;;;;;6.07;3.13;;;28.00;35.10;;;;;;5077551;28;20449;-72
2022/08/15 00:26:14;;;;;;;7.03;3.30;;;28.00;35.20;;;;;;5077495;28;20491;-72
2022/08/15 00:28:41;;;;;;;6.20;2.87;;;27.90;35.10;;;;;;5078037;28;20444;-72
2022/08/15 00:31:11;;;;;;;3.27;2.73;;;27.90;35.70;;;;;;5078018;28;20881;-72
2022/08/15 00:33:40;;;;;;;6.33;2.83;;;27.80;35.60;;;;;;5077648;28;20434;-72
2022/08/15 00:36:08;;;;;;;4.87;2.57;;;27.60;35.40;;;;;;5078655;28;20445;-72
2022/08/15 00:38:35;;;;;;;8.80;3.50;;;27.50;35.80;;;;;;5079158;28;20457;-72
2022/08/15 00:43:53;;;;;;;5.13;2.80;;;27.40;36.40;;;;;;5078468;28;20429;-72
2022/08/15 00:46:22;;;;;;;3.90;3.10;;;27.30;36.50;;;;;;5078543;28;20872;-72
2022/08/15 00:48:50;;;;;;;8.00;3.50;;;27.20;36.80;;;;;;5076640;28;20978;-72
2022/08/15 00:51:21;;;;;;;5.90;3.00;;;27.10;36.90;;;;;;5092126;28;20469;-72
2022/08/15 00:53:52;;;;;;;4.83;2.50;;;27.00;37.40;;;;;;5093315;28;20436;-72
2022/08/15 00:56:22;;;;;;;6.60;3.20;;;26.80;37.50;;;;;;5093117;28;20524;-72
2022/08/15 00:58:49;;;;;;;7.80;3.07;;;26.70;38.20;;;;;;5093073;28;20445;-72
2022/08/15 01:01:16;;;;;;;7.40;2.67;;;26.60;38.50;;;;;;5091440;28;20528;-72
2022/08/15 01:03:47;;;;;;;4.70;2.97;;;26.50;39.00;;;;;;5093567;28;20453;-72
2022/08/15 01:06:14;;;;;;;5.30;2.60;;;26.50;39.70;;;;;;5092304;28;20461;-72
2022/08/15 01:08:45;;;;;;;5.33;2.93;;;26.40;39.80;;;;;;5090809;28;20417;-72
2022/08/15 01:11:15;;;;;;;14.93;3.33;;;26.40;40.30;;;;;;5088910;28;20473;-71
2022/08/15 01:13:43;;;;;;;7.83;2.93;;;26.40;40.30;;;;;;5089578;28;20857;-72
2022/08/15 01:16:10;;;;;;;9.00;3.23;;;26.30;40.60;;;;;;5090062;28;20548;-72
2022/08/15 01:18:38;;;;;;;6.20;3.43;;;26.30;40.60;;;;;;5080566;28;20452;-72
2022/08/15 01:21:16;;;;;;;10.27;3.07;;;26.30;40.70;;;;;;5073881;28;20456;-72
2022/08/15 01:23:58;;;;;;;5.00;2.87;;;26.20;41.00;;;;;;5074413;28;20809;-72
2022/08/15 01:26:27;;;;;;;6.70;3.03;;;26.20;41.20;;;;;;5073484;28;20979;-72
2022/08/15 01:28:56;;;;;;;3.63;2.83;;;26.20;41.50;;;;;;5073390;28;20959;-72
2022/08/15 01:31:25;;;;;;;5.37;2.50;;;26.20;41.30;;;;;;5072960;28;20514;-72
2022/08/15 01:33:54;;;;;;;5.73;3.30;;;26.20;41.80;;;;;;5073720;28;20456;-72
2022/08/15 01:36:22;;;;;;;5.17;3.37;;;26.20;41.80;;;;;;5073855;28;20441;-72
2022/08/15 01:38:56;;;;;;;3.20;2.90;;;26.10;41.80;;;;;;5073532;28;20445;-72
2022/08/15 01:41:30;;;;;;;7.13;2.90;;;26.10;42.40;;;;;;5073780;28;20471;-72
2022/08/15 01:44:04;;;;;;;8.50;3.43;;;26.10;42.30;;;;;;5073595;28;20436;-72
2022/08/15 01:46:38;;;;;;;5.50;2.93;;;26.10;42.10;;;;;;5073566;28;20468;-72
2022/08/15 01:49:12;;;;;;;10.20;2.90;;;26.10;42.80;;;;;;5073609;28;20438;-72
2022/08/15 01:51:39;;;;;;;8.13;2.70;;;26.10;42.40;;;;;;5073631;28;20660;-72
2022/08/15 01:54:09;;;;;;;8.23;3.03;;;26.00;42.50;;;;;;5073380;28;20445;-72
2022/08/15 01:56:40;;;;;;;5.67;3.20;;;26.00;42.60;;;;;;5073791;28;20433;-72
2022/08/15 01:59:11;;;;;;;4.97;2.57;;;25.90;42.70;;;;;;5073677;28;20437;-72
2022/08/15 02:01:45;;;;;;;3.00;2.43;;;25.90;42.60;;;;;;5073618;28;20473;-72
2022/08/15 02:04:14;;;;;;;6.87;2.47;;;25.80;42.80;;;;;;5073166;28;20819;-72
2022/08/15 02:06:43;;;;;;;6.53;2.60;;;25.80;42.80;;;;;;5073355;28;20491;-72
2022/08/15 02:09:14;;;;;;;5.13;3.07;;;25.90;43.00;;;;;;5073887;28;20456;-72
2022/08/15 02:11:43;;;;;;;6.13;2.90;;;25.90;42.90;;;;;;5072961;28;20988;-72
2022/08/15 02:14:11;;;;;;;9.20;3.07;;;25.90;42.90;;;;;;5073278;28;20445;-72
2022/08/15 02:16:39;;;;;;;2.60;2.37;;;25.90;43.10;;;;;;5073038;28;20449;-72
2022/08/15 02:19:08;;;;;;;3.10;2.60;;;25.90;43.10;;;;;;5073234;28;20449;-72
2022/08/15 02:21:35;;;;;;;3.90;2.90;;;25.90;42.80;;;;;;5073129;28;20472;-72
2022/08/15 02:24:04;;;;;;;4.40;2.40;;;25.90;43.00;;;;;;5072832;28;20951;-72
2022/08/15 02:26:31;;;;;;;8.77;2.80;;;25.90;43.10;;;;;;5072885;28;20483;-72
2022/08/15 02:28:59;;;;;;;4.50;2.80;;;25.80;43.00;;;;;;5073099;28;20445;-72
2022/08/15 02:31:27;;;;;;;11.07;3.07;;;25.80;43.30;;;;;;5073080;28;20473;-72
2022/08/15 02:33:58;;;;;;;7.50;2.93;;;25.80;43.30;;;;;;5073137;28;20808;-72
2022/08/15 02:36:26;;;;;;;5.00;2.53;;;25.80;43.40;;;;;;5072633;28;20897;-72
2022/08/15 02:38:53;;;;;;;3.57;2.57;;;25.80;43.40;;;;;;5073060;28;20440;-72
2022/08/15 02:41:22;;;;;;;9.77;2.87;;;25.80;43.40;;;;;;5073951;28;20497;-71
2022/08/15 02:43:50;;;;;;;5.10;2.40;;;25.80;43.20;;;;;;5076707;28;20506;-72
2022/08/15 02:46:19;;;;;;;2.37;2.17;;;25.80;43.30;;;;;;5076358;28;20999;-72
2022/08/15 02:48:48;;;;;;;8.20;3.10;;;25.80;43.30;;;;;;5076662;28;20445;-72
2022/08/15 02:51:17;;;;;;;5.50;2.73;;;25.80;43.40;;;;;;5076596;28;20468;-71
2022/08/15 02:53:47;;;;;;;3.87;2.63;;;25.80;43.30;;;;;;5076611;28;20449;-71
2022/08/15 02:56:14;;;;;;;3.30;2.60;;;25.80;43.40;;;;;;5076518;28;20449;-72
2022/08/15 02:58:41;;;;;;;4.97;2.60;;;25.80;43.40;;;;;;5076434;28;20453;-71
2022/08/15 03:01:09;;;;;;;4.17;2.27;;;25.80;43.50;;;;;;5075917;28;20483;-71
2022/08/15 03:03:38;;;;;;;5.80;2.23;;;25.90;43.30;;;;;;5076185;28;20472;-72
2022/08/15 03:06:07;;;;;;;4.30;2.17;;;25.80;43.20;;;;;;5076210;28;20541;-72
2022/08/15 03:08:34;;;;;;;5.50;2.70;;;25.90;43.20;;;;;;5076167;28;20800;-72
2022/08/15 03:11:01;;;;;;;5.40;2.10;;;25.80;43.30;;;;;;5076109;28;20531;-72
2022/08/15 03:13:28;;;;;;;4.60;2.40;;;25.80;43.30;;;;;;5076065;28;20457;-72
2022/08/15 03:15:56;;;;;;;2.93;2.60;;;25.80;43.50;;;;;;5075844;28;20453;-72
2022/08/15 03:18:25;;;;;;;7.13;2.53;;;25.70;43.50;;;;;;5075777;28;20448;-72
2022/08/15 03:20:53;;;;;;;8.53;2.90;;;25.70;43.70;;;;;;5075976;28;20460;-72
2022/08/15 03:23:22;;;;;;;3.73;2.60;;;25.70;43.80;;;;;;5075892;28;20475;-72
2022/08/15 03:25:51;;;;;;;5.93;2.80;;;25.60;44.00;;;;;;5075968;28;20448;-72
2022/08/15 03:28:19;;;;;;;5.33;3.23;;;25.60;44.00;;;;;;5075560;28;20437;-72
2022/08/15 03:30:46;;;;;;;3.10;2.80;;;25.50;44.10;;;;;;5078678;28;20504;-71
2022/08/15 03:33:13;;;;;;;2.60;2.40;;;25.50;44.30;;;;;;5080761;28;20494;-70
2022/08/15 03:35:42;;;;;;;3.77;2.47;;;25.50;44.40;;;;;;5080856;28;20440;-70
2022/08/15 03:38:10;;;;;;;2.73;2.27;;;25.40;44.40;;;;;;5080236;28;20441;-71
2022/08/15 03:40:38;;;;;;;4.70;2.97;;;25.40;44.50;;;;;;5080469;28;20461;-70
2022/08/15 03:43:07;;;;;;;6.10;2.60;;;25.40;44.70;;;;;;5080510;28;20470;-71
2022/08/15 03:45:34;;;;;;;3.33;2.63;;;25.40;44.70;;;;;;5081163;28;20456;-71
2022/08/15 03:48:02;;;;;;;4.47;2.80;;;25.40;45.40;;;;;;5079860;28;20484;-71
2022/08/15 03:50:29;;;;;;;3.33;2.60;;;25.40;44.70;;;;;;5080140;28;20475;-71
2022/08/15 03:52:59;;;;;;;5.03;2.13;;;25.40;44.60;;;;;;5079233;28;20445;-70
2022/08/15 03:55:29;;;;;;;2.30;2.10;;;25.40;45.00;;;;;;5079619;28;20453;-70
2022/08/15 03:57:57;;;;;;;5.60;2.53;;;25.40;44.80;;;;;;5079076;28;20433;-71
2022/08/15 04:00:26;;;;;;;4.73;2.60;;;25.40;45.10;;;;;;5080099;28;20469;-70
2022/08/15 04:02:53;;;;;;;5.57;2.83;;;25.40;44.90;;;;;;5079376;28;20456;-70
2022/08/15 04:05:20;;;;;;;5.70;2.83;;;25.50;45.00;;;;;;5078642;28;20441;-71
2022/08/15 04:07:47;;;;;;;6.70;2.43;;;25.50;45.00;;;;;;5078938;28;20542;-70
2022/08/15 04:10:16;;;;;;;3.90;2.87;;;25.50;44.90;;;;;;5079475;28;20433;-70
2022/08/15 04:12:47;;;;;;;5.13;2.70;;;25.40;45.20;;;;;;5079087;28;20451;-71
2022/08/15 04:15:15;;;;;;;12.53;3.40;;;25.40;45.20;;;;;;5078606;28;20807;-71
2022/08/15 04:17:43;;;;;;;7.03;3.10;;;25.40;45.10;;;;;;5077921;28;20430;-71
2022/08/15 04:20:11;;;;;;;8.90;2.60;;;25.40;45.20;;;;;;5078033;28;20449;-71
2022/08/15 04:22:41;;;;;;;8.10;3.17;;;25.40;45.20;;;;;;5078783;28;20451;-71
2022/08/15 04:25:10;;;;;;;8.30;3.50;;;25.30;45.50;;;;;;5078931;28;20457;-71
2022/08/15 04:27:37;;;;;;;4.90;3.13;;;25.30;45.70;;;;;;5079159;28;20518;-71
2022/08/15 04:30:07;;;;;;;5.00;2.30;;;25.30;45.90;;;;;;5077464;28;20441;-70
2022/08/15 04:32:34;;;;;;;5.67;2.97;;;25.20;45.70;;;;;;5076717;28;20944;-71
2022/08/15 04:35:00;;;;;;;4.53;2.90;;;25.20;46.30;;;;;;5077031;28;20448;-71
2022/08/15 04:37:28;;;;;;;4.80;3.00;;;25.10;46.30;;;;;;5076341;28;20523;-71
2022/08/15 04:39:56;;;;;;;7.90;2.87;;;25.20;46.10;;;;;;5076976;28;20452;-71
2022/08/15 04:42:24;;;;;;;4.83;2.50;;;25.10;46.20;;;;;;5076994;28;20469;-71
2022/08/15 04:44:52;;;;;;;8.33;3.20;;;25.10;46.30;;;;;;5077346;28;20449;-70
2022/08/15 04:47:20;;;;;;;4.43;2.80;;;25.10;46.40;;;;;;5076967;28;20563;-71
2022/08/15 04:49:47;;;;;;;3.50;2.43;;;25.10;46.20;;;;;;5078672;28;20449;-71
2022/08/15 04:52:16;;;;;;;6.83;2.30;;;25.10;46.50;;;;;;5078765;28;20468;-71
2022/08/15 04:54:43;;;;;;;5.63;2.80;;;25.10;46.60;;;;;;5078148;28;20449;-70
2022/08/15 04:57:10;;;;;;;6.60;2.67;;;25.10;46.50;;;;;;5075673;28;20445;-70
2022/08/15 04:59:39;;;;;;;6.33;2.30;;;25.10;46.50;;;;;;5076058;28;20456;-70
2022/08/15 05:02:08;;;;;;;3.60;2.70;;;25.10;46.60;;;;;;5079416;28;20575;-70
2022/08/15 05:04:36;;;;;;;4.60;2.50;;;25.10;46.60;;;;;;5078814;28;20460;-70
2022/08/15 05:07:03;;;;;;;6.03;3.17;;;25.10;46.80;;;;;;5079719;28;20485;-70
2022/08/15 05:09:30;;;;;;;3.17;2.47;;;25.10;47.00;;;;;;5078942;28;20952;-70
2022/08/15 05:11:57;;;;;;;5.90;2.67;;;25.10;46.80;;;;;;5077865;28;20464;-70
2022/08/15 05:14:24;;;;;;;5.10;3.03;;;25.10;47.00;;;;;;5078080;28;20460;-70
2022/08/15 05:16:51;;;;;;;6.67;3.27;;;25.10;46.90;;;;;;5078497;28;20448;-71
2022/08/15 05:19:18;;;;;;;7.80;2.60;;;25.10;47.30;;;;;;5078054;28;20445;-71
2022/08/15 05:21:46;;;;;;;9.37;2.70;;;25.20;47.20;;;;;;5077197;28;20475;-71
2022/08/15 05:24:13;;;;;;;4.87;2.60;;;25.20;47.00;;;;;;5077926;28;20449;-71
2022/08/15 05:26:40;;;;;;;4.00;2.63;;;25.20;47.00;;;;;;5076632;28;20433;-71
2022/08/15 05:29:07;;;;;;;6.37;3.60;;;25.20;47.30;;;;;;5076848;28;20446;-71
2022/08/15 05:31:35;;;;;;;8.77;3.93;;;25.20;47.20;;;;;;5075843;28;20476;-71
2022/08/15 05:34:03;;;;;;;5.37;2.80;;;25.30;47.20;;;;;;5074942;28;20507;-72
2022/08/15 05:36:33;;;;;;;2.87;2.57;;;25.30;47.40;;;;;;5075180;28;20524;-71
2022/08/15 05:39:18;;;;;;;8.00;2.40;;;25.30;47.10;;;;;;5074790;28;20444;-71
2022/08/15 05:41:51;;;;;;;11.13;3.10;;;25.30;47.50;;;;;;5075129;28;20480;-71
2022/08/15 05:44:28;;;;;;;5.70;3.10;;;25.30;47.10;;;;;;5074713;28;20491;-71
2022/08/15 05:47:04;;;;;;;4.97;3.03;;;25.20;48.00;;;;;;5074540;28;20563;-71
2022/08/15 05:49:39;;;;;;;6.37;2.80;;;25.20;47.80;;;;;;5074527;28;20562;-71
2022/08/15 05:52:24;;;;;;;7.43;3.30;;;25.20;47.90;;;;;;5074717;28;20511;-71
2022/08/15 05:55:06;;;;;;;7.40;5.07;;;25.10;47.90;;;;;;5074721;28;20884;-71
2022/08/15 05:57:41;;;;;;;11.90;5.50;;;25.20;48.30;;;;;;5074654;28;20436;-71
2022/08/15 06:00:11;;;;;;;7.13;3.23;;;25.20;48.00;;;;;;5074469;28;20877;-71
2022/08/15 06:02:43;;;;;;;5.60;3.10;;;25.30;47.90;;;;;;5074160;28;20459;-71
2022/08/15 06:05:15;;;;;;;4.70;2.77;;;25.30;47.90;;;;;;5073825;28;20472;-71
2022/08/15 06:07:45;;;;;;;8.00;3.30;;;25.40;48.00;;;;;;5074890;28;20911;-71
2022/08/15 06:10:25;;;;;;;9.67;2.63;;;25.40;48.10;;;;;;5074578;28;20472;-70
2022/08/15 06:12:57;;;;;;;6.50;3.23;;;25.40;47.70;;;;;;5074088;28;20441;-71
2022/08/15 06:15:28;;;;;;;6.87;3.07;;;25.50;48.00;;;;;;5074229;28;20464;-71
2022/08/15 06:17:57;;;;;;;5.57;3.17;;;25.40;48.10;;;;;;5078604;28;20769;-71
2022/08/15 06:20:34;;;;;;;4.13;3.60;;;25.50;48.50;;;;;;5077979;28;20475;-71
2022/08/15 06:23:08;;;;;;;7.03;3.50;;;25.50;48.30;;;;;;5077925;28;20434;-71
2022/08/15 06:25:46;;;;;;;4.80;2.90;;;25.50;48.60;;;;;;5077951;28;20448;-72
2022/08/15 06:28:44;;;;;;;10.83;3.43;;;25.50;48.40;;;;;;5077875;28;20471;-71
2022/08/15 06:31:19;;;;;;;4.50;3.37;;;25.50;48.50;;;;;;5077892;28;20492;-71
2022/08/15 06:33:54;;;;;;;10.90;2.97;;;25.50;48.40;;;;;;5077938;28;20436;-72
2022/08/15 06:36:28;;;;;;;8.57;3.30;;;25.50;48.40;;;;;;5078515;28;20750;-72
2022/08/15 06:39:02;;;;;;;9.07;2.90;;;25.50;48.70;;;;;;5078051;28;20923;-72
2022/08/15 06:41:36;;;;;;;10.90;3.40;;;25.50;49.20;;;;;;5078195;28;20479;-71
2022/08/15 06:44:04;;;;;;;12.37;3.47;;;25.50;50.00;;;;;;5077581;28;20441;-70
2022/08/15 06:46:33;;;;;;;7.80;2.67;;;25.40;49.60;;;;;;5077599;28;20476;-71
2022/08/15 06:49:04;;;;;;;8.30;3.00;;;25.40;49.90;;;;;;5077781;28;20511;-71
2022/08/15 06:51:32;;;;;;;9.33;3.77;;;25.40;50.10;;;;;;5077891;28;20473;-71
2022/08/15 06:54:00;;;;;;;6.50;3.40;;;25.40;50.40;;;;;;5078076;28;20456;-71
2022/08/15 06:56:37;;;;;;;5.50;2.97;;;25.20;50.80;;;;;;5077836;28;20437;-71
2022/08/15 06:59:10;;;;;;;7.73;2.93;;;25.10;51.10;;;;;;5077810;28;20433;-71
2022/08/15 07:01:49;;;;;;;6.03;2.83;;;25.10;51.40;;;;;;5077548;28;20476;-71
2022/08/15 07:04:25;;;;;;;6.23;3.37;;;25.10;51.60;;;;;;5077251;28;20460;-71
2022/08/15 07:07:00;;;;;;;7.97;3.47;;;25.10;51.80;;;;;;5077748;28;20421;-71
2022/08/15 07:09:38;;;;;;;8.03;3.80;;;25.10;51.80;;;;;;5077253;28;20430;-71
2022/08/15 07:12:21;;;;;;;4.40;3.20;;;25.10;51.70;;;;;;5077873;28;20821;-71
2022/08/15 07:14:56;;;;;;;5.53;2.90;;;25.00;52.00;;;;;;5078535;28;20891;-71
2022/08/15 07:17:30;;;;;;;5.67;3.20;;;25.00;52.20;;;;;;5077535;28;20425;-71
2022/08/15 07:19:57;;;;;;;5.53;3.13;;;25.00;52.10;;;;;;5077012;28;20425;-71
2022/08/15 07:22:24;;;;;;;8.70;3.10;;;25.10;52.50;;;;;;5076982;28;20447;-71
2022/08/15 07:24:54;;;;;;;6.90;3.60;;;25.00;52.70;;;;;;5077230;28;20544;-71
2022/08/15 07:27:30;;;;;;;8.50;3.53;;;25.10;52.70;;;;;;5075588;28;20433;-71
2022/08/15 07:30:02;;;;;;;7.67;3.80;;;25.10;52.80;;;;;;5076354;28;20985;-71
2022/08/15 07:32:44;;;;;;;4.23;2.97;;;25.10;53.10;;;;;;5077235;28;20943;-71
2022/08/15 07:35:19;;;;;;;4.80;3.00;;;25.20;52.70;;;;;;5076646;28;20467;-71
2022/08/15 07:37:56;;;;;;;6.00;3.10;;;25.20;53.00;;;;;;5076528;28;20433;-71
2022/08/15 07:40:26;;;;;;;8.97;3.37;;;25.30;52.90;;;;;;5076926;28;20472;-71
2022/08/15 07:42:55;;;;;;;5.37;3.13;;;25.40;52.40;;;;;;5077028;28;20449;-71
2022/08/15 07:45:29;;;;;;;4.27;3.00;;;25.40;52.60;;;;;;5076401;28;20441;-71
2022/08/15 07:47:58;;;;;;;7.47;3.67;;;25.50;52.60;;;;;;5077162;28;20522;-72
2022/08/15 07:50:33;;;;;;;13.93;3.60;;;25.60;52.30;;;;;;5076018;28;20476;-72
2022/08/15 07:53:06;;;;;;;9.23;3.03;;;25.80;52.30;;;;;;5076646;28;20436;-72
2022/08/15 07:55:33;;;;;;;6.10;3.70;;;26.00;51.90;;;;;;5076435;28;20486;-71
2022/08/15 07:58:06;;;;;;;7.30;3.10;;;26.10;50.90;;;;;;5076464;28;20448;-72
2022/08/15 08:00:35;;;;;;;8.73;3.60;;;26.30;50.50;;;;;;5076129;28;20473;-72
2022/08/15 08:03:09;;;;;;;4.83;3.50;;;26.50;50.00;;;;;;5076069;28;20472;-72
2022/08/15 08:05:43;;;;;;;4.83;3.60;;;26.70;49.40;;;;;;5076209;28;20433;-71
2022/08/15 08:08:11;;;;;;;4.00;3.60;;;26.90;49.40;;;;;;5075775;28;20476;-71
2022/08/15 08:10:42;;;;;;;7.20;3.37;;;27.10;49.40;;;;;;5076731;28;20472;-71
2022/08/15 08:13:35;;;;;;;3.30;3.00;;;27.20;49.00;;;;;;5076698;28;20426;-71
2022/08/15 08:16:12;;;;;;;8.00;3.80;;;27.20;48.70;;;;;;5076447;28;20452;-71
2022/08/15 08:18:48;;;;;;;5.90;3.37;;;27.20;48.90;;;;;;5076630;28;20436;-71
2022/08/15 08:21:18;;;;;;;4.97;3.10;;;27.10;48.90;;;;;;5075773;28;20479;-72
2022/08/15 08:23:49;;;;;;;6.77;2.93;;;27.10;48.70;;;;;;5075895;28;20469;-71
2022/08/15 08:26:26;;;;;;;7.13;3.70;;;27.10;49.10;;;;;;5075973;28;20444;-71
2022/08/15 08:29:06;;;;;;;8.07;3.73;;;27.00;49.90;;;;;;5076030;28;21060;-71
2022/08/15 08:31:40;;;;;;;23.20;4.40;;;26.90;50.00;;;;;;5075952;28;20465;-71
2022/08/15 08:34:16;;;;;;;5.77;3.30;;;26.70;50.40;;;;;;5076110;28;20425;-71
2022/08/15 08:36:55;;;;;;;6.50;4.20;;;26.60;50.40;;;;;;5075469;28;20441;-71
2022/08/15 08:39:35;;;;;;;6.40;3.33;;;26.60;50.20;;;;;;5075269;28;20441;-71
2022/08/15 08:42:14;;;;;;;8.93;3.50;;;26.70;50.30;;;;;;5075109;28;20476;-71
2022/08/15 08:44:50;;;;;;;6.93;3.43;;;26.70;50.50;;;;;;5075443;28;20440;-71
2022/08/15 08:47:32;;;;;;;4.47;3.20;;;26.60;50.70;;;;;;5074947;28;20473;-71
2022/08/15 08:50:11;;;;;;;6.10;3.40;;;26.60;51.10;;;;;;5075195;28;20429;-71
2022/08/15 08:52:45;;;;;;;6.60;3.83;;;26.60;51.00;;;;;;5074979;28;20443;-71
2022/08/15 08:55:18;;;;;;;8.70;3.80;;;26.50;51.20;;;;;;5075124;28;20877;-71
2022/08/15 08:57:49;;;;;;;6.50;4.07;;;26.50;51.30;;;;;;5074485;28;20814;-71
2022/08/15 09:00:20;;;;;;;5.00;4.00;;;26.50;51.70;;;;;;5074479;28;20938;-71
2022/08/15 09:02:53;;;;;;;6.73;3.23;;;26.60;51.50;;;;;;5074582;28;20437;-71
2022/08/15 09:05:29;;;;;;;6.70;3.50;;;26.50;52.00;;;;;;5074657;28;20447;-71
2022/08/15 09:08:00;;;;;;;6.03;3.50;;;26.50;51.80;;;;;;5074481;28;20940;-71
2022/08/15 09:10:32;;;;;;;5.43;3.70;;;26.60;51.90;;;;;;5074286;28;20465;-72
2022/08/15 09:15:50;;;;;;;7.73;3.87;;;26.70;51.30;;;;;;5074398;28;20490;-72
2022/08/15 09:18:21;;;;;;;6.10;3.27;;;26.70;51.30;;;;;;5074576;28;20433;-72
2022/08/15 09:20:49;;;;;;;9.23;4.57;;;26.70;51.10;;;;;;5074136;28;20473;-72
2022/08/15 09:23:17;;;;;;;5.60;3.73;;;26.80;51.40;;;;;;5074115;28;20445;-71
2022/08/15 09:25:54;;;;;;;6.67;3.80;;;26.80;51.40;;;;;;5074122;28;20540;-71
2022/08/15 09:28:29;;;;;;;14.90;4.50;;;26.80;51.50;;;;;;5074227;28;20468;-72
2022/08/15 09:30:59;;;;;;;7.20;4.50;;;26.80;52.00;;;;;;5074186;28;20515;-71
2022/08/15 09:34:12;;;;;;;7.13;3.93;;;26.80;51.80;;;;;;5074469;28;20453;-71
2022/08/15 09:37:18;;;;;;;4.47;4.07;;;26.70;51.70;;;;;;5049838;28;20864;-71
2022/08/15 09:40:17;;;;;;;7.83;4.90;;;26.70;51.70;;;;;;5068645;28;20533;-71
2022/08/15 09:43:07;;;;;;;7.27;4.20;;;26.70;51.60;;;;;;5074256;28;20434;-72
2022/08/15 09:45:48;;;;;;;5.73;4.27;;;26.70;52.00;;;;;;5074238;28;20460;-71
2022/08/15 09:48:42;;;;;;;8.60;5.07;;;26.60;51.90;;;;;;5074030;28;20469;-72
2022/08/15 09:51:23;;;;;;;6.93;4.23;;;26.60;52.20;;;;;;5073036;28;20564;-73
2022/08/15 09:54:02;;;;;;;5.10;4.70;;;26.70;52.00;;;;;;5073471;28;20923;-72
2022/08/15 09:56:31;;;;;;;4.83;4.27;;;26.70;52.50;;;;;;5073614;28;20437;-73
2022/08/15 09:59:08;;;;;;;5.77;4.30;;;26.60;52.30;;;;;;5073386;28;20441;-73
2022/08/15 10:01:44;;;;;;;6.47;4.27;;;26.60;51.90;;;;;;5073604;28;20587;-73
2022/08/15 10:04:17;;;;;;;8.23;4.03;;;26.60;52.50;;;;;;5073282;28;20899;-73
2022/08/15 10:06:57;;;;;;;5.67;4.00;;;26.60;52.10;;;;;;5073582;28;20425;-73
2022/08/15 10:09:34;;;;;;;10.80;4.13;;;26.60;52.90;;;;;;5073832;28;20472;-73
2022/08/15 10:12:19;;;;;;;5.40;4.47;;;26.60;53.90;;;;;;5073458;28;20468;-70
2022/08/15 10:15:03;;;;;;;7.57;5.33;;;26.60;54.90;;;;;;5073420;28;20425;-71
2022/08/15 10:17:44;;;;;;;7.13;4.80;;;26.50;56.10;;;;;;5073393;28;20433;-71
2022/08/15 10:20:52;;;;;;;7.47;4.80;;;26.50;56.60;;;;;;5073436;28;20444;-71
2022/08/15 10:23:24;;;;;;;4.70;4.30;;;26.40;57.30;;;;;;5073182;28;20916;-71
2022/08/15 10:26:10;;;;;;;6.07;4.80;;;26.30;58.30;;;;;;5073465;28;20429;-72
2022/08/15 10:28:40;;;;;;;5.57;5.03;;;26.20;58.70;;;;;;5073157;28;20567;-72
2022/08/15 10:31:24;;;;;;;6.50;4.27;;;26.10;58.80;;;;;;5073061;28;20576;-73
2022/08/15 10:33:52;;;;;;;5.13;4.37;;;26.10;57.60;;;;;;5072753;28;20915;-72
2022/08/15 10:36:28;;;;;;;6.60;4.77;;;26.00;58.40;;;;;;5072794;28;20445;-73
2022/08/15 10:39:12;;;;;;;5.83;3.93;;;26.10;59.00;;;;;;5073092;28;20436;-73
2022/08/15 10:41:53;;;;;;;5.47;4.57;;;26.10;58.20;;;;;;5072963;28;20479;-73
2022/08/15 10:44:32;;;;;;;5.30;4.63;;;26.20;57.60;;;;;;5073125;28;20425;-73
2022/08/15 10:47:13;;;;;;;7.10;4.50;;;26.20;56.80;;;;;;5073215;28;20813;-73
2022/08/15 10:49:52;;;;;;;7.30;5.23;;;26.30;55.70;;;;;;5072523;28;21021;-73
2022/08/15 10:52:34;;;;;;;6.70;4.47;;;26.30;55.80;;;;;;5072860;28;20460;-73
2022/08/15 10:55:24;;;;;;;5.10;4.70;;;26.30;56.10;;;;;;5072796;28;20441;-73
2022/08/15 10:57:55;;;;;;;7.10;5.60;;;26.30;56.20;;;;;;5072888;28;20448;-72
2022/08/15 11:00:39;;;;;;;5.47;4.80;;;26.30;56.80;;;;;;5072863;28;20507;-72
2022/08/15 11:03:08;;;;;;;6.03;4.43;;;26.40;58.00;;;;;;5074654;28;20455;-73
2022/08/15 11:05:36;;;;;;;7.80;4.90;;;26.30;58.00;;;;;;5076367;28;20448;-73
2022/08/15 11:08:12;;;;;;;7.00;4.63;;;26.40;57.80;;;;;;5076647;28;20440;-72
2022/08/15 11:10:39;;;;;;;7.00;4.63;;;26.50;57.20;;;;;;5076275;28;20460;-71
2022/08/15 11:13:09;;;;;;;9.20;4.63;;;26.50;56.70;;;;;;5076338;28;20451;-71
2022/08/15 11:15:49;;;;;;;5.13;4.60;;;26.50;57.30;;;;;;5075870;28;20813;-71
2022/08/15 11:18:25;;;;;;;6.80;4.20;;;26.50;57.10;;;;;;5076254;28;20439;-72
2022/08/15 11:20:54;;;;;;;5.63;4.50;;;26.50;57.00;;;;;;5075883;28;20849;-72
2022/08/15 11:23:36;;;;;;;5.93;4.83;;;26.50;56.80;;;;;;5076082;28;20457;-72
2022/08/15 11:26:04;;;;;;;4.80;4.30;;;26.60;57.10;;;;;;5076152;28;20433;-72
2022/08/15 11:28:32;;;;;;;6.27;4.40;;;26.50;55.90;;;;;;5075726;28;20479;-72
2022/08/15 11:31:02;;;;;;;4.87;4.37;;;26.50;56.10;;;;;;5075794;28;20473;-72
2022/08/15 11:33:40;;;;;;;6.30;4.30;;;26.50;56.90;;;;;;5075695;28;20447;-72
2022/08/15 11:36:11;;;;;;;5.60;4.90;;;26.40;56.80;;;;;;5075775;28;20436;-72
2022/08/15 11:38:46;;;;;;;5.87;4.67;;;26.30;56.70;;;;;;5075626;28;20436;-72
2022/08/15 11:41:21;;;;;;;6.33;4.60;;;26.30;56.10;;;;;;5075597;28;20841;-70
2022/08/15 11:43:48;;;;;;;7.97;4.87;;;26.20;56.50;;;;;;5075726;28;20441;-70
2022/08/15 11:46:17;;;;;;;6.17;5.57;;;26.20;56.90;;;;;;5073478;28;20469;-70
2022/08/15 11:48:49;;;;;;;9.43;5.90;;;26.20;58.00;;;;;;5075318;28;20811;-70
2022/08/15 11:51:25;;;;;;;8.30;5.63;;;26.20;58.10;;;;;;5075306;28;20475;-70
2022/08/15 11:54:16;;;;;;;5.43;4.90;;;26.20;58.50;;;;;;5075555;28;20433;-70
2022/08/15 11:56:46;;;;;;;11.13;6.33;;;26.20;58.80;;;;;;5075189;28;20449;-71
2022/08/15 11:59:14;;;;;;;9.23;6.27;;;26.20;59.30;;;;;;5075461;28;20432;-71
2022/08/15 12:01:44;;;;;;;8.43;6.03;;;26.30;60.20;;;;;;5075452;28;20503;-71
2022/08/15 12:04:12;;;;;;;5.80;4.73;;;26.30;60.70;;;;;;5075270;28;20465;-71
2022/08/15 12:06:41;;;;;;;6.57;5.60;;;26.30;60.20;;;;;;5075389;28;20548;-71
2022/08/15 12:09:13;;;;;;;7.07;5.70;;;26.30;60.10;;;;;;5073206;28;20481;-71
2022/08/15 12:11:45;;;;;;;6.33;5.73;;;26.30;61.90;;;;;;5075308;28;20460;-71
2022/08/15 12:14:19;;;;;;;8.00;5.77;;;26.30;62.00;;;;;;5073794;28;20433;-71
2022/08/15 12:16:49;;;;;;;7.03;4.83;;;26.40;62.00;;;;;;5075292;28;20457;-72
2022/08/15 12:19:29;;;;;;;6.80;4.53;;;26.50;62.40;;;;;;5075238;28;20417;-72
2022/08/15 12:21:58;;;;;;;5.70;5.20;;;26.60;60.20;;;;;;5075128;28;20514;-72
2022/08/15 12:24:28;;;;;;;11.50;4.73;;;27.00;60.00;;;;;;5075260;28;20437;-72
2022/08/15 12:26:56;;;;;;;5.67;5.13;;;27.60;58.20;;;;;;5075269;28;20957;-73
2022/08/15 12:29:24;;;;;;;5.23;4.13;;;29.30;57.40;;;;;;5074400;28;20530;-73
2022/08/15 12:31:53;;;;;;;6.23;5.03;;;31.40;50.00;;;;;;5074542;28;20557;-73
2022/08/15 12:34:23;;;;;;;4.50;4.03;;;32.90;45.90;;;;;;5074662;28;20479;-74
2022/08/15 12:36:51;;;;;;;5.73;4.40;;;33.40;42.40;;;;;;5074358;28;20468;-74
2022/08/15 12:39:19;;;;;;;8.83;4.50;;;33.80;42.00;;;;;;5074585;28;20429;-73
2022/08/15 12:41:50;;;;;;;5.07;4.67;;;34.00;40.70;;;;;;5074639;28;20495;-74
2022/08/15 12:44:21;;;;;;;5.73;5.13;;;34.10;39.60;;;;;;5074596;28;20436;-73
2022/08/15 12:46:48;;;;;;;4.90;4.40;;;33.90;39.10;;;;;;5074167;28;20908;-73
2022/08/15 12:49:14;;;;;;;5.50;5.00;;;33.70;40.30;;;;;;5074022;28;20484;-73
2022/08/15 12:51:41;;;;;;;5.47;5.07;;;33.30;40.30;;;;;;5074414;28;20460;-74
2022/08/15 12:54:08;;;;;;;6.27;4.33;;;33.00;40.40;;;;;;5074259;28;20452;-73
2022/08/15 12:56:35;;;;;;;7.30;4.43;;;32.60;41.40;;;;;;5074208;28;20454;-73
2022/08/15 12:59:05;;;;;;;5.37;4.70;;;32.30;41.50;;;;;;5074238;28;20456;-73
2022/08/15 13:01:33;;;;;;;4.73;4.30;;;32.10;42.10;;;;;;5074177;28;20476;-72
2022/08/15 13:04:05;;;;;;;5.00;4.50;;;32.10;42.30;;;;;;5073842;28;20517;-71
2022/08/15 13:06:37;;;;;;;6.17;4.00;;;32.70;41.90;;;;;;5073998;28;20441;-71
2022/08/15 13:09:05;;;;;;;5.00;4.20;;;34.10;40.40;;;;;;5073864;28;20443;-72
2022/08/15 13:11:32;;;;;;;7.10;4.43;;;35.60;36.00;;;;;;5073991;28;20461;-72
2022/08/15 13:13:59;;;;;;;5.17;3.97;;;36.50;34.40;;;;;;5073866;28;20506;-72
2022/08/15 13:16:27;;;;;;;4.57;4.17;;;36.60;33.20;;;;;;5073828;28;20452;-72